Terminal Aerodrome Forecast
Issued by NWS North Platte, NE

Home | Current Version | Previous Version | Graphics & Text | Print | Product List | Glossary On
Versions: 1 2 3 4 5 6 7 8 9 10 11 12 13 14 15 16 17 18
429
FTUS43 KLBF 221446 AAB
TAFVTN
TAF AMD
KVTN 221446Z 2215/2312 03007KT P6SM OVC008
     FM221800 06010KT P6SM OVC015
     FM222100 05009KT P6SM SCT025 BKN050
     FM230200 06011KT P6SM OVC025
     FM230500 07012KT P6SM OVC015
     FM230700 09012KT P6SM OVC005
      TEMPO 2308/2312 3SM BR=

USA.gov is the U.S. government's official web portal to all federal, state and local government web resources and services.